createdAt,value
2023-05-21T00:00:46.712Z,28.95
2023-05-21T00:01:46.730Z,29.78
2023-05-21T00:02:46.827Z,31.30
2023-05-21T00:03:46.905Z,29.63
2023-05-21T00:04:48.360Z,31.58
2023-05-21T00:05:46.862Z,31.74
2023-05-21T00:06:47.751Z,29.93
2023-05-21T00:07:46.680Z,26.23
2023-05-21T00:08:47.244Z,27.43
2023-05-21T00:09:46.647Z,28.16
2023-05-21T00:10:46.656Z,26.79
2023-05-21T00:11:46.677Z,29.45
2023-05-21T00:12:46.664Z,27.31
2023-05-21T00:13:46.633Z,25.38
2023-05-21T00:14:46.625Z,28.74
2023-05-21T00:15:47.269Z,28.10
2023-05-21T00:16:46.662Z,29.62
2023-05-21T00:17:46.650Z,29.62
2023-05-21T00:18:46.627Z,25.00
2023-05-21T00:19:46.605Z,28.38
2023-05-21T00:20:46.578Z,32.01
2023-05-21T00:21:46.589Z,29.75
2023-05-21T00:22:46.586Z,27.06
2023-05-21T00:23:46.543Z,30.83
2023-05-21T00:24:46.579Z,25.99
2023-05-21T00:25:46.567Z,25.00
2023-05-21T00:26:46.549Z,29.29
2023-05-21T00:27:46.539Z,30.55
2023-05-21T00:28:46.539Z,27.81
2023-05-21T00:29:46.534Z,29.00
2023-05-21T00:30:46.786Z,32.00
2023-05-21T00:31:47.310Z,28.85
2023-05-21T00:32:46.530Z,27.53
2023-05-21T00:33:46.586Z,33.11
2023-05-21T00:34:46.545Z,33.62
2023-05-21T00:35:46.790Z,29.32
2023-05-21T00:36:46.611Z,28.21
2023-05-21T00:37:46.585Z,28.99
2023-05-21T00:38:46.653Z,32.40
2023-05-21T00:39:46.632Z,33.90
2023-05-21T00:40:46.759Z,30.74
2023-05-21T00:41:46.700Z,30.41
2023-05-21T00:42:46.716Z,30.87
2023-05-21T00:43:46.732Z,29.28
2023-05-21T00:44:46.763Z,29.97
2023-05-21T00:45:46.926Z,28.70
2023-05-21T00:46:46.804Z,29.44
2023-05-21T00:47:46.881Z,32.34
2023-05-21T00:48:46.869Z,30.57
2023-05-21T00:49:46.899Z,31.38
2023-05-21T00:50:46.890Z,35.05
2023-05-21T00:51:46.942Z,32.47
2023-05-21T00:52:46.944Z,31.75
2023-05-21T00:53:46.990Z,31.83
2023-05-21T00:54:46.995Z,29.71
2023-05-21T00:55:47.016Z,30.61
2023-05-21T00:56:47.795Z,31.58
2023-05-21T00:57:47.065Z,27.38
2023-05-21T00:58:47.122Z,29.56
2023-05-21T00:59:47.110Z,30.43
2023-05-21T01:00:47.155Z,29.41
2023-05-21T01:01:47.192Z,30.97
2023-05-21T01:02:47.280Z,29.50
2023-05-21T01:03:47.466Z,29.32
2023-05-21T01:04:47.239Z,28.98
2023-05-21T01:05:47.242Z,30.50
2023-05-21T01:06:47.320Z,26.84
2023-05-21T01:07:47.300Z,28.45
2023-05-21T01:08:47.293Z,28.90
2023-05-21T01:09:47.332Z,28.85
2023-05-21T01:10:47.348Z,27.29
2023-05-21T01:11:47.446Z,28.97
2023-05-21T01:12:47.452Z,28.54
2023-05-21T01:13:47.443Z,28.80
2023-05-21T01:14:47.479Z,25.00
2023-05-21T01:15:47.777Z,31.22
2023-05-21T01:16:47.516Z,34.42
2023-05-21T01:17:47.576Z,31.50
2023-05-21T01:18:47.720Z,32.06
2023-05-21T01:19:47.652Z,29.99
2023-05-21T01:20:47.582Z,29.03
2023-05-21T01:21:47.636Z,28.63
2023-05-21T01:22:47.634Z,29.09
2023-05-21T01:23:47.629Z,29.85
2023-05-21T01:24:47.751Z,30.97
2023-05-21T01:25:47.730Z,29.41
2023-05-21T01:26:47.732Z,30.15
2023-05-21T01:27:48.268Z,27.78
2023-05-21T01:28:47.739Z,32.65
2023-05-21T01:29:47.784Z,30.56
2023-05-21T01:30:47.806Z,32.26
2023-05-21T01:31:47.838Z,27.52
2023-05-21T01:32:47.922Z,29.17
2023-05-21T01:33:47.937Z,29.18
2023-05-21T01:34:47.901Z,29.26
2023-05-21T01:35:47.913Z,30.63
2023-05-21T01:36:48.002Z,29.29
2023-05-21T01:37:48.014Z,27.12
2023-05-21T01:38:48.033Z,30.74
2023-05-21T01:39:48.062Z,29.09
2023-05-21T01:40:48.140Z,29.87
2023-05-21T01:41:48.132Z,30.43
2023-05-21T01:42:48.102Z,30.81
2023-05-21T01:43:48.123Z,30.29
2023-05-21T01:44:48.197Z,29.37
2023-05-21T01:45:48.193Z,31.51
2023-05-21T01:46:48.266Z,31.47
2023-05-21T01:47:48.248Z,34.62
2023-05-21T01:48:48.272Z,30.24
2023-05-21T01:49:48.293Z,31.90
2023-05-21T01:50:49.283Z,31.45
2023-05-21T01:51:48.377Z,29.98
2023-05-21T01:52:48.384Z,32.38
2023-05-21T01:53:48.429Z,29.57
2023-05-21T01:54:48.433Z,30.55
2023-05-21T01:55:48.455Z,28.27
2023-05-21T01:56:48.469Z,29.14
2023-05-21T01:57:48.484Z,29.75
2023-05-21T01:58:48.550Z,29.79
2023-05-21T01:59:48.581Z,31.52
2023-05-21T02:00:48.597Z,31.51
2023-05-21T02:01:48.663Z,28.55
2023-05-21T02:02:48.710Z,29.48
2023-05-21T02:03:48.737Z,30.26
2023-05-21T02:04:48.685Z,28.55
2023-05-21T02:05:48.722Z,26.91
2023-05-21T02:06:48.741Z,29.97
2023-05-21T02:07:48.764Z,25.00
2023-05-21T02:08:48.848Z,30.46
2023-05-21T02:09:48.842Z,29.13
2023-05-21T02:10:49.338Z,29.96
2023-05-21T02:11:48.866Z,30.04
2023-05-21T02:12:48.880Z,30.61
2023-05-21T02:13:48.906Z,32.09
2023-05-21T02:14:48.915Z,31.64
2023-05-21T02:15:48.978Z,34.63
2023-05-21T02:16:48.980Z,31.58
2023-05-21T02:17:48.999Z,32.05
2023-05-21T02:18:49.086Z,31.08
2023-05-21T02:19:49.077Z,27.46
2023-05-21T02:20:49.187Z,32.03
2023-05-21T02:21:49.111Z,31.37
2023-05-21T02:22:49.106Z,27.78
2023-05-21T02:23:49.174Z,29.06
2023-05-21T02:24:49.166Z,32.27
2023-05-21T02:25:49.327Z,29.65
2023-05-21T02:26:49.200Z,27.07
2023-05-21T02:27:49.232Z,30.48
2023-05-21T02:28:49.293Z,29.87
2023-05-21T02:29:49.295Z,31.85
2023-05-21T02:30:49.823Z,28.84
2023-05-21T02:31:49.375Z,34.02
2023-05-21T02:32:49.406Z,28.52
2023-05-21T02:33:49.435Z,28.63
2023-05-21T02:34:49.481Z,30.29
2023-05-21T02:35:49.488Z,28.55
2023-05-21T02:36:49.499Z,28.71
2023-05-21T02:37:49.513Z,30.54
2023-05-21T02:38:49.547Z,27.79
2023-05-21T02:39:49.576Z,29.99
2023-05-21T02:40:49.627Z,25.66
2023-05-21T02:41:49.645Z,29.25
2023-05-21T02:42:49.686Z,29.30
2023-05-21T02:43:49.709Z,34.25
2023-05-21T02:44:50.689Z,34.41
2023-05-21T02:45:49.714Z,32.99
2023-05-21T02:46:49.690Z,31.67
2023-05-21T02:47:49.726Z,32.79
2023-05-21T02:48:49.684Z,30.36
2023-05-21T02:49:49.664Z,28.23
2023-05-21T02:50:49.653Z,29.67
2023-05-21T02:51:49.636Z,31.15
2023-05-21T02:52:49.637Z,30.77
2023-05-21T02:53:49.621Z,32.50
2023-05-21T02:54:49.627Z,29.29
2023-05-21T02:55:49.632Z,30.69
2023-05-21T02:56:49.627Z,30.56
2023-05-21T02:57:49.618Z,30.61
2023-05-21T02:58:49.587Z,27.23
2023-05-21T02:59:49.556Z,30.29
2023-05-21T03:00:49.616Z,34.05
2023-05-21T03:01:49.753Z,31.10
2023-05-21T03:02:49.798Z,28.04
2023-05-21T03:03:49.756Z,29.18
2023-05-21T03:04:49.746Z,30.17
2023-05-21T03:05:49.723Z,32.02
2023-05-21T03:06:49.769Z,29.20
2023-05-21T03:07:49.801Z,28.82
2023-05-21T03:08:49.831Z,30.27
2023-05-21T03:09:49.871Z,31.59
2023-05-21T03:10:50.330Z,30.66
2023-05-21T03:11:49.913Z,29.04
2023-05-21T03:12:49.957Z,32.12
2023-05-21T03:13:50.027Z,29.04
2023-05-21T03:14:49.982Z,29.41
2023-05-21T03:15:50.340Z,30.59
2023-05-21T03:16:50.075Z,28.62
2023-05-21T03:17:50.139Z,31.58
2023-05-21T03:18:50.139Z,27.47
2023-05-21T03:19:50.098Z,29.42
2023-05-21T03:20:50.378Z,29.34
2023-05-21T03:21:50.126Z,29.55
2023-05-21T03:22:50.193Z,31.62
2023-05-21T03:23:50.170Z,29.29
2023-05-21T03:24:50.284Z,28.68
2023-05-21T03:25:50.259Z,33.00
2023-05-21T03:26:50.281Z,31.43
2023-05-21T03:27:50.276Z,31.63
2023-05-21T03:28:50.343Z,26.57
2023-05-21T03:29:50.363Z,30.15
2023-05-21T03:30:50.839Z,28.63
2023-05-21T03:31:50.426Z,28.45
2023-05-21T03:32:50.459Z,30.03
2023-05-21T03:33:50.450Z,28.38
2023-05-21T03:34:50.475Z,28.06
2023-05-21T03:35:50.538Z,31.26
2023-05-21T03:36:50.533Z,30.45
2023-05-21T03:37:50.569Z,28.88
2023-05-21T03:38:50.632Z,28.63
2023-05-21T03:39:50.612Z,28.90
2023-05-21T03:40:50.653Z,32.68
2023-05-21T03:41:50.681Z,32.53
2023-05-21T03:42:50.713Z,31.62
2023-05-21T03:43:50.718Z,31.72
2023-05-21T03:44:50.759Z,29.84
2023-05-21T03:45:50.965Z,35.80
2023-05-21T03:46:50.837Z,29.88
2023-05-21T03:47:50.868Z,30.00
2023-05-21T03:48:50.842Z,28.35
2023-05-21T03:49:50.889Z,26.42
2023-05-21T03:50:51.344Z,31.58
2023-05-21T03:51:50.943Z,30.84
2023-05-21T03:52:50.970Z,28.33
2023-05-21T03:53:50.973Z,32.10
2023-05-21T03:54:51.024Z,29.43
2023-05-21T03:55:51.369Z,29.43
2023-05-21T03:56:51.665Z,28.82
2023-05-21T03:57:51.110Z,30.40
2023-05-21T03:58:51.145Z,27.97
2023-05-21T03:59:51.139Z,31.69
2023-05-21T04:00:51.196Z,26.64
2023-05-21T04:01:51.192Z,29.05
2023-05-21T04:02:51.261Z,27.69
2023-05-21T04:03:51.400Z,29.84
2023-05-21T04:04:51.416Z,32.28
2023-05-21T04:05:51.297Z,33.21
2023-05-21T04:06:51.293Z,31.89
2023-05-21T04:07:51.330Z,28.44
2023-05-21T04:08:51.339Z,32.31
2023-05-21T04:09:51.380Z,31.90
2023-05-21T04:10:51.832Z,32.90
2023-05-21T04:11:51.393Z,31.65
2023-05-21T04:12:51.439Z,29.98
2023-05-21T04:13:51.486Z,30.79
2023-05-21T04:14:51.509Z,30.24
2023-05-21T04:15:51.875Z,28.96
2023-05-21T04:16:51.524Z,31.33
2023-05-21T04:17:51.554Z,29.34
2023-05-21T04:18:51.637Z,29.47
2023-05-21T04:19:51.609Z,31.46
2023-05-21T04:20:51.862Z,25.83
2023-05-21T04:21:51.652Z,29.61
2023-05-21T04:22:51.668Z,29.20
2023-05-21T04:23:51.664Z,28.69
2023-05-21T04:24:51.706Z,32.58
2023-05-21T04:25:51.871Z,29.97
2023-05-21T04:26:51.752Z,32.42
2023-05-21T04:27:51.769Z,28.10
2023-05-21T04:28:51.810Z,31.05
2023-05-21T04:29:51.812Z,30.50
2023-05-21T04:30:51.900Z,31.54
2023-05-21T04:31:51.938Z,30.55
2023-05-21T04:32:51.950Z,30.50
2023-05-21T04:33:51.923Z,29.71
2023-05-21T04:34:51.931Z,32.10
2023-05-21T04:35:52.391Z,29.48
2023-05-21T04:36:51.993Z,30.24
2023-05-21T04:37:52.014Z,28.23
2023-05-21T04:38:52.061Z,31.68
2023-05-21T04:39:52.125Z,26.80
2023-05-21T04:40:52.414Z,30.50
2023-05-21T04:41:52.121Z,30.87
2023-05-21T04:42:52.151Z,33.16
2023-05-21T04:43:52.164Z,32.43
2023-05-21T04:44:52.217Z,31.91
2023-05-21T04:45:52.255Z,29.18
2023-05-21T04:46:52.259Z,29.15
2023-05-21T04:47:52.354Z,34.41
2023-05-21T04:48:52.308Z,28.98
2023-05-21T04:49:52.341Z,28.45
2023-05-21T04:50:52.388Z,28.92
2023-05-21T04:51:52.386Z,28.27
2023-05-21T04:52:52.420Z,31.77
2023-05-21T04:53:52.416Z,28.07
2023-05-21T04:54:52.437Z,29.78
2023-05-21T04:55:52.880Z,27.89
2023-05-21T04:56:52.518Z,28.08
2023-05-21T04:57:52.550Z,31.16
2023-05-21T04:58:52.570Z,29.76
2023-05-21T04:59:52.571Z,29.59
2023-05-21T05:00:52.908Z,33.13
2023-05-21T05:01:52.637Z,28.83
2023-05-21T05:02:52.729Z,30.76
2023-05-21T05:03:52.788Z,31.85
2023-05-21T05:04:52.689Z,33.15
2023-05-21T05:05:52.872Z,29.22
2023-05-21T05:06:52.747Z,31.10
2023-05-21T05:07:52.767Z,31.77
2023-05-21T05:08:52.781Z,30.23
2023-05-21T05:09:52.813Z,34.14
2023-05-21T05:10:53.376Z,34.20
2023-05-21T05:11:52.856Z,31.78
2023-05-21T05:12:52.866Z,33.30
2023-05-21T05:13:52.879Z,27.16
2023-05-21T05:14:52.965Z,32.13
2023-05-21T05:15:54.678Z,28.58
2023-05-21T05:16:53.035Z,30.86
2023-05-21T05:17:52.997Z,33.24
2023-05-21T05:18:53.082Z,32.39
2023-05-21T05:19:53.027Z,29.68
2023-05-21T05:20:53.438Z,34.36
2023-05-21T05:21:53.099Z,30.91
2023-05-21T05:22:53.089Z,30.17
2023-05-21T05:23:53.144Z,31.59
2023-05-21T05:24:53.155Z,32.12
2023-05-21T05:25:53.204Z,33.26
2023-05-21T05:26:53.206Z,33.92
2023-05-21T05:27:53.220Z,31.52
2023-05-21T05:28:53.315Z,30.28
2023-05-21T05:29:53.261Z,28.47
2023-05-21T05:30:53.394Z,32.61
2023-05-21T05:31:53.265Z,34.71
2023-05-21T05:32:53.347Z,33.83
2023-05-21T05:33:53.303Z,31.59
2023-05-21T05:34:53.370Z,30.61
2023-05-21T05:35:53.381Z,32.74
2023-05-21T05:36:53.403Z,31.87
2023-05-21T05:37:53.400Z,30.68
2023-05-21T05:38:53.456Z,27.36
2023-05-21T05:39:53.459Z,32.72
2023-05-21T05:40:53.904Z,32.88
2023-05-21T05:41:53.500Z,31.56
2023-05-21T05:42:53.527Z,31.10
2023-05-21T05:43:53.544Z,31.82
2023-05-21T05:44:53.597Z,34.27
2023-05-21T05:45:53.916Z,29.47
2023-05-21T05:46:53.622Z,27.93
2023-05-21T05:47:53.670Z,32.89
2023-05-21T05:48:53.643Z,32.70
2023-05-21T05:49:53.684Z,29.64
2023-05-21T05:50:53.891Z,33.56
2023-05-21T05:51:53.778Z,34.60
2023-05-21T05:52:53.740Z,31.18
2023-05-21T05:53:53.769Z,33.25
2023-05-21T05:54:53.774Z,32.18
2023-05-21T05:55:53.819Z,31.07
2023-05-21T05:56:53.833Z,31.70
2023-05-21T05:57:53.860Z,30.29
2023-05-21T05:58:53.880Z,32.49
2023-05-21T05:59:53.922Z,32.16
2023-05-21T06:00:54.382Z,33.81
2023-05-21T06:01:53.952Z,29.84
2023-05-21T06:02:54.060Z,32.99
2023-05-21T06:03:54.056Z,32.20
2023-05-21T06:04:54.031Z,30.30
2023-05-21T06:05:54.409Z,33.56
2023-05-21T06:06:54.112Z,31.09
2023-05-21T06:07:54.092Z,32.20
2023-05-21T06:08:54.126Z,30.13
2023-05-21T06:09:54.136Z,33.57
2023-05-21T06:10:54.372Z,30.72
2023-05-21T06:11:54.192Z,33.00
2023-05-21T06:12:54.223Z,28.81
2023-05-21T06:13:54.242Z,30.14
2023-05-21T06:14:54.219Z,33.06
2023-05-21T06:15:54.417Z,31.81
2023-05-21T06:16:54.347Z,32.79
2023-05-21T06:17:54.439Z,31.28
2023-05-21T06:18:54.347Z,34.41
2023-05-21T06:19:54.324Z,30.22
2023-05-21T06:20:54.375Z,31.16
2023-05-21T06:21:54.335Z,27.79
2023-05-21T06:22:54.396Z,32.23
2023-05-21T06:23:54.413Z,31.84
2023-05-21T06:24:54.445Z,33.82
2023-05-21T06:25:55.409Z,28.77
2023-05-21T06:26:54.447Z,28.44
2023-05-21T06:27:54.464Z,30.76
2023-05-21T06:28:54.477Z,30.17
2023-05-21T06:29:54.511Z,28.13
2023-05-21T06:30:54.900Z,29.06
2023-05-21T06:31:54.561Z,33.77
2023-05-21T06:32:54.631Z,29.99
2023-05-21T06:33:54.779Z,33.69
2023-05-21T06:34:54.612Z,29.93
2023-05-21T06:35:54.883Z,28.38
2023-05-21T06:36:54.625Z,28.91
2023-05-21T06:37:54.673Z,28.24
2023-05-21T06:38:54.674Z,28.62
2023-05-21T06:39:54.708Z,29.17
2023-05-21T06:40:54.895Z,31.75
2023-05-21T06:41:54.714Z,33.69
2023-05-21T06:42:54.746Z,29.36
2023-05-21T06:43:54.760Z,31.10
2023-05-21T06:44:54.781Z,33.48
2023-05-21T06:45:54.917Z,33.54
2023-05-21T06:46:54.819Z,28.39
2023-05-21T06:47:54.902Z,32.71
2023-05-21T06:48:54.832Z,34.54
2023-05-21T06:49:54.877Z,33.75
2023-05-21T06:50:54.892Z,30.36
2023-05-21T06:51:54.905Z,31.93
2023-05-21T06:52:54.903Z,32.34
2023-05-21T06:53:54.931Z,35.52
2023-05-21T06:54:54.951Z,30.88
2023-05-21T06:55:55.902Z,32.04
2023-05-21T06:56:55.018Z,30.14
2023-05-21T06:57:55.016Z,29.39
2023-05-21T06:58:55.032Z,30.99
2023-05-21T06:59:55.046Z,30.96
2023-05-21T07:00:55.433Z,31.67
2023-05-21T07:01:55.170Z,35.04
2023-05-21T07:02:55.150Z,31.54
2023-05-21T07:03:55.128Z,32.48
2023-05-21T07:04:55.103Z,31.09
2023-05-21T07:05:55.150Z,33.55
2023-05-21T07:06:55.142Z,30.26
2023-05-21T07:07:55.166Z,34.18
2023-05-21T07:08:55.149Z,31.82
2023-05-21T07:09:55.217Z,34.67
2023-05-21T07:10:55.228Z,31.96
2023-05-21T07:11:55.213Z,33.93
2023-05-21T07:12:55.286Z,33.07
2023-05-21T07:13:55.258Z,29.78
2023-05-21T07:14:56.459Z,33.38
2023-05-21T07:15:55.422Z,33.67
2023-05-21T07:16:55.339Z,33.75
2023-05-21T07:17:55.356Z,33.49
2023-05-21T07:18:55.374Z,30.94
2023-05-21T07:19:55.329Z,36.07
2023-05-21T07:20:55.401Z,31.29
2023-05-21T07:21:55.373Z,32.30
2023-05-21T07:22:55.395Z,34.58
2023-05-21T07:23:55.400Z,32.70
2023-05-21T07:24:55.408Z,34.53
2023-05-21T07:25:55.896Z,31.15
2023-05-21T07:26:55.435Z,28.21
2023-05-21T07:27:55.465Z,29.77
2023-05-21T07:28:55.464Z,28.35
2023-05-21T07:29:55.473Z,32.42
2023-05-21T07:30:56.014Z,32.40
2023-05-21T07:31:55.542Z,34.21
2023-05-21T07:32:55.574Z,32.37
2023-05-21T07:33:55.529Z,32.58
2023-05-21T07:34:55.549Z,30.98
2023-05-21T07:35:55.920Z,30.47
2023-05-21T07:36:55.569Z,29.83
2023-05-21T07:37:55.635Z,31.08
2023-05-21T07:38:55.606Z,31.01
2023-05-21T07:39:55.597Z,29.75
2023-05-21T07:40:55.941Z,30.77
2023-05-21T07:41:55.643Z,33.18
2023-05-21T07:42:55.629Z,29.59
2023-05-21T07:43:55.674Z,28.74
2023-05-21T07:44:55.682Z,31.65
2023-05-21T07:45:55.682Z,30.25
2023-05-21T07:46:55.685Z,29.69
2023-05-21T07:47:55.741Z,33.20
2023-05-21T07:48:55.671Z,28.81
2023-05-21T07:49:55.721Z,32.76
2023-05-21T07:50:55.716Z,33.69
2023-05-21T07:51:55.719Z,32.34
2023-05-21T07:52:55.756Z,31.74
2023-05-21T07:53:55.743Z,31.34
2023-05-21T07:54:55.714Z,34.69
2023-05-21T07:55:55.728Z,33.67
2023-05-21T07:56:55.735Z,31.75
2023-05-21T07:57:55.742Z,29.19
2023-05-21T07:58:55.770Z,29.91
2023-05-21T07:59:55.784Z,28.06
2023-05-21T08:00:55.772Z,33.07
2023-05-21T08:01:55.771Z,34.49
2023-05-21T08:02:55.864Z,31.88
2023-05-21T08:03:55.874Z,31.59
2023-05-21T08:04:55.793Z,34.17
2023-05-21T08:05:55.787Z,29.38
2023-05-21T08:06:55.807Z,31.10
2023-05-21T08:07:55.842Z,34.15
2023-05-21T08:08:55.835Z,30.80
2023-05-21T08:09:55.838Z,33.68
2023-05-21T08:10:55.852Z,32.16
2023-05-21T08:11:55.848Z,33.20
2023-05-21T08:12:55.820Z,31.81
2023-05-21T08:13:55.817Z,34.58
2023-05-21T08:14:55.834Z,36.16
2023-05-21T08:15:55.865Z,37.14
2023-05-21T08:16:55.880Z,33.86
2023-05-21T08:17:55.899Z,35.29
2023-05-21T08:18:55.915Z,33.81
2023-05-21T08:19:55.892Z,31.16
2023-05-21T08:20:55.939Z,31.48
2023-05-21T08:21:55.876Z,33.54
2023-05-21T08:22:55.889Z,31.00
2023-05-21T08:23:55.845Z,33.71
2023-05-21T08:24:55.869Z,33.38
2023-05-21T08:25:55.859Z,31.27
2023-05-21T08:26:55.882Z,36.04
2023-05-21T08:27:55.932Z,36.27
2023-05-21T08:28:55.876Z,32.67
2023-05-21T08:29:55.877Z,26.03
2023-05-21T08:30:55.897Z,34.05
2023-05-21T08:31:55.914Z,30.54
2023-05-21T08:32:55.944Z,35.49
2023-05-21T08:33:55.909Z,35.71
2023-05-21T08:34:55.884Z,31.87
2023-05-21T08:35:55.898Z,31.72
2023-05-21T08:36:55.859Z,30.62
2023-05-21T08:37:55.866Z,29.50
2023-05-21T08:38:55.865Z,33.36
2023-05-21T08:39:55.894Z,33.22
2023-05-21T08:40:55.973Z,38.75
2023-05-21T08:41:55.891Z,34.64
2023-05-21T08:42:55.897Z,30.71
2023-05-21T08:43:55.892Z,25.15
2023-05-21T08:44:55.901Z,25.00
2023-05-21T08:45:55.937Z,31.58
2023-05-21T08:46:55.894Z,26.32
2023-05-21T08:47:55.985Z,29.26
2023-05-21T08:48:55.880Z,26.87
2023-05-21T08:49:55.871Z,34.72
2023-05-21T08:50:55.915Z,30.82
2023-05-21T08:51:55.894Z,36.90
2023-05-21T08:52:55.884Z,37.05
2023-05-21T08:53:55.919Z,35.53
2023-05-21T08:54:55.873Z,33.71
2023-05-21T08:55:55.957Z,32.92
2023-05-21T08:56:56.529Z,34.76
2023-05-21T08:57:55.898Z,32.61
2023-05-21T08:58:55.904Z,32.96
2023-05-21T08:59:55.889Z,37.09
2023-05-21T09:00:55.927Z,36.65
2023-05-21T09:01:55.973Z,39.39
2023-05-21T09:02:56.011Z,37.56
2023-05-21T09:04:04.812Z,41.72
2023-05-21T09:04:56.905Z,41.86
2023-05-21T09:05:55.871Z,42.09
2023-05-21T09:06:55.899Z,37.70
2023-05-21T09:07:55.861Z,40.61
2023-05-21T09:08:55.868Z,35.00
2023-05-21T09:09:55.859Z,41.40
2023-05-21T09:10:55.841Z,39.46
2023-05-21T09:11:55.827Z,29.29
2023-05-21T09:12:55.833Z,36.31
2023-05-21T09:13:55.834Z,31.29
2023-05-21T09:14:55.820Z,33.37
2023-05-21T09:15:55.824Z,40.61
2023-05-21T09:16:55.863Z,39.37
2023-05-21T09:17:55.823Z,45.40
2023-05-21T09:18:55.802Z,44.01
2023-05-21T09:19:55.772Z,42.99
2023-05-21T09:20:55.929Z,37.48
2023-05-21T09:21:55.791Z,38.88
2023-05-21T09:22:55.776Z,31.74
2023-05-21T09:23:55.749Z,36.57
2023-05-21T09:24:55.750Z,38.24
2023-05-21T09:25:55.749Z,38.55
2023-05-21T09:26:55.729Z,38.58
2023-05-21T09:27:55.741Z,40.89
2023-05-21T09:28:55.738Z,43.68
2023-05-21T09:29:55.704Z,41.92
2023-05-21T09:30:55.790Z,35.24
2023-05-21T09:31:55.783Z,37.39
2023-05-21T09:32:55.709Z,41.37
2023-05-21T09:33:55.754Z,39.85
2023-05-21T09:34:55.697Z,40.70
2023-05-21T09:35:55.657Z,44.15
2023-05-21T09:36:55.652Z,41.52
2023-05-21T09:37:55.664Z,38.48
2023-05-21T09:38:55.632Z,45.76
2023-05-21T09:39:55.619Z,39.37
2023-05-21T09:40:55.955Z,32.55
2023-05-21T09:41:55.591Z,36.91
2023-05-21T09:42:55.616Z,33.44
2023-05-21T09:43:55.596Z,28.77
2023-05-21T09:44:55.601Z,33.16
2023-05-21T09:45:55.795Z,39.44
2023-05-21T09:46:55.771Z,40.67
2023-05-21T09:47:55.618Z,31.32
2023-05-21T09:48:55.535Z,40.19
2023-05-21T09:49:55.601Z,37.14
2023-05-21T09:50:55.559Z,33.44
2023-05-21T09:51:55.530Z,37.43
2023-05-21T09:52:55.580Z,31.95
2023-05-21T09:53:55.543Z,30.55
2023-05-21T09:54:55.507Z,28.94
2023-05-21T09:55:55.516Z,30.69
2023-05-21T09:56:55.519Z,30.37
2023-05-21T09:57:55.477Z,36.03
2023-05-21T09:58:55.483Z,39.87
2023-05-21T09:59:55.466Z,43.51
2023-05-21T10:00:55.487Z,43.13
2023-05-21T10:01:55.569Z,38.44
2023-05-21T10:02:55.526Z,37.68
2023-05-21T10:03:55.449Z,39.95
2023-05-21T10:04:55.446Z,40.50
2023-05-21T10:05:55.436Z,45.39
2023-05-21T10:06:55.417Z,39.61
2023-05-21T10:07:55.449Z,33.20
2023-05-21T10:08:55.418Z,36.11
2023-05-21T10:09:55.407Z,38.35
2023-05-21T10:10:55.386Z,45.86
2023-05-21T10:11:55.382Z,47.27
2023-05-21T10:12:55.405Z,45.79
2023-05-21T10:13:55.387Z,46.32
2023-05-21T10:14:55.367Z,41.01
2023-05-21T10:15:55.534Z,43.75
2023-05-21T10:16:55.350Z,44.54
2023-05-21T10:17:55.385Z,42.91
2023-05-21T10:18:55.447Z,45.29
2023-05-21T10:19:55.347Z,46.09
2023-05-21T10:20:55.439Z,37.76
2023-05-21T10:21:55.340Z,42.79
2023-05-21T10:22:55.297Z,46.74
2023-05-21T10:23:55.305Z,43.82
2023-05-21T10:24:55.325Z,42.96
2023-05-21T10:25:55.319Z,45.67
2023-05-21T10:26:55.304Z,40.03
2023-05-21T10:27:55.285Z,41.84
2023-05-21T10:28:55.309Z,38.59
2023-05-21T10:29:55.273Z,43.30
2023-05-21T10:30:55.268Z,44.92
2023-05-21T10:31:55.347Z,46.09
2023-05-21T10:32:55.400Z,45.09
2023-05-21T10:33:55.269Z,37.81
2023-05-21T10:34:55.240Z,46.44
2023-05-21T10:35:55.455Z,47.38
2023-05-21T10:36:55.221Z,38.95
2023-05-21T10:37:55.210Z,40.87
2023-05-21T10:38:55.252Z,47.07
2023-05-21T10:39:55.171Z,47.95
2023-05-21T10:40:55.469Z,44.33
2023-05-21T10:41:57.694Z,40.68
2023-05-21T10:42:55.201Z,51.81
2023-05-21T10:43:55.201Z,38.04
2023-05-21T10:44:55.209Z,36.40
2023-05-21T10:45:55.472Z,39.45
2023-05-21T10:46:55.149Z,43.81
2023-05-21T10:47:55.206Z,35.73
2023-05-21T10:48:55.187Z,40.26
2023-05-21T10:49:55.188Z,37.00
2023-05-21T10:50:55.136Z,38.66
2023-05-21T10:51:55.106Z,41.32
2023-05-21T10:52:55.146Z,40.06
2023-05-21T10:53:55.132Z,41.54
2023-05-21T10:54:55.105Z,39.70
2023-05-21T10:55:55.116Z,43.89
2023-05-21T10:56:55.138Z,43.15
2023-05-21T10:57:55.089Z,44.89
2023-05-21T10:58:55.072Z,45.09
2023-05-21T10:59:55.084Z,41.21
2023-05-21T11:00:55.513Z,35.58
2023-05-21T11:01:55.054Z,41.89
2023-05-21T11:02:55.296Z,39.87
2023-05-21T11:03:55.150Z,35.19
2023-05-21T11:04:55.057Z,36.84
2023-05-21T11:05:55.046Z,35.02
2023-05-21T11:06:55.058Z,39.71
2023-05-21T11:07:55.035Z,44.42
2023-05-21T11:08:55.712Z,49.11
2023-05-21T11:09:55.013Z,41.65
2023-05-21T11:10:55.013Z,44.02
2023-05-21T11:11:54.992Z,42.77
2023-05-21T11:12:54.988Z,42.31
2023-05-21T11:13:54.963Z,44.31
2023-05-21T11:14:55.001Z,43.41
2023-05-21T11:15:55.000Z,35.10
2023-05-21T11:16:55.010Z,39.87
2023-05-21T11:17:55.068Z,35.46
2023-05-21T11:18:55.022Z,37.51
2023-05-21T11:19:54.939Z,42.55
2023-05-21T11:20:54.949Z,47.90
2023-05-21T11:21:54.930Z,52.13
2023-05-21T11:22:54.938Z,37.60
2023-05-21T11:23:54.902Z,38.66
2023-05-21T11:24:54.911Z,44.42
2023-05-21T11:25:54.893Z,38.33
2023-05-21T11:26:54.883Z,25.00
2023-05-21T11:27:54.915Z,26.52
2023-05-21T11:28:54.903Z,31.87
2023-05-21T11:29:54.864Z,30.06
2023-05-21T11:30:54.875Z,41.74
2023-05-21T11:31:54.856Z,47.34
2023-05-21T11:32:54.906Z,40.49
2023-05-21T11:33:54.893Z,37.46
2023-05-21T11:34:54.856Z,32.41
2023-05-21T11:35:54.844Z,30.67
2023-05-21T11:36:54.839Z,40.87
2023-05-21T11:37:54.808Z,40.32
2023-05-21T11:38:54.819Z,39.60
2023-05-21T11:39:54.845Z,45.09
2023-05-21T11:40:54.953Z,47.09
2023-05-21T11:41:54.784Z,50.82
2023-05-21T11:42:54.772Z,44.52
2023-05-21T11:43:54.787Z,39.12
2023-05-21T11:44:54.754Z,45.21
2023-05-21T11:45:54.759Z,40.32
2023-05-21T11:46:54.863Z,43.76
2023-05-21T11:47:54.872Z,35.00
2023-05-21T11:48:54.742Z,42.96
2023-05-21T11:49:54.767Z,44.95
2023-05-21T11:50:54.736Z,32.94
2023-05-21T11:51:54.741Z,37.40
2023-05-21T11:52:54.772Z,33.25
2023-05-21T11:53:54.785Z,39.37
2023-05-21T11:54:54.823Z,43.49
2023-05-21T11:55:54.833Z,37.07
2023-05-21T11:56:54.834Z,44.87
2023-05-21T11:57:54.863Z,39.95
2023-05-21T11:58:54.897Z,40.79
2023-05-21T11:59:54.901Z,41.07
2023-05-21T12:00:54.969Z,38.90
2023-05-21T12:01:55.017Z,36.49
2023-05-21T12:02:55.081Z,35.06
2023-05-21T12:03:55.149Z,33.28
2023-05-21T12:04:55.995Z,30.04
2023-05-21T12:05:55.206Z,36.02
2023-05-21T12:06:55.159Z,36.25
2023-05-21T12:07:55.221Z,33.48
2023-05-21T12:08:55.223Z,27.28
2023-05-21T12:09:55.288Z,29.72
2023-05-21T12:10:55.325Z,30.71
2023-05-21T12:11:55.321Z,35.45
2023-05-21T12:12:56.965Z,38.50
2023-05-21T12:13:55.469Z,38.52
2023-05-21T12:14:55.475Z,44.80
2023-05-21T12:15:55.552Z,44.47
2023-05-21T12:16:55.631Z,44.16
2023-05-21T12:17:55.701Z,41.48
2023-05-21T12:18:55.654Z,42.76
2023-05-21T12:19:55.688Z,46.41
2023-05-21T12:20:55.724Z,46.33
2023-05-21T12:21:55.750Z,38.59
2023-05-21T12:22:56.500Z,39.52
2023-05-21T12:23:55.880Z,42.39
2023-05-21T12:24:55.917Z,35.93
2023-05-21T12:25:55.989Z,40.83
2023-05-21T12:26:56.004Z,40.79
2023-05-21T12:27:56.075Z,38.17
2023-05-21T12:28:56.148Z,36.27
2023-05-21T12:29:56.193Z,37.04
2023-05-21T12:30:56.260Z,32.83
2023-05-21T12:31:56.319Z,33.05
2023-05-21T12:32:56.420Z,34.43
2023-05-21T12:33:56.426Z,26.94
2023-05-21T12:34:56.498Z,29.60
2023-05-21T12:35:56.695Z,25.00
2023-05-21T12:36:56.634Z,25.00
2023-05-21T12:37:56.746Z,38.40
2023-05-21T12:38:56.733Z,37.32
2023-05-21T12:39:56.807Z,32.74
2023-05-21T12:40:56.978Z,32.03
2023-05-21T12:41:56.925Z,31.93
2023-05-21T12:42:56.971Z,35.44
2023-05-21T12:43:57.046Z,31.02
2023-05-21T12:44:57.134Z,28.23
2023-05-21T12:45:57.535Z,27.67
2023-05-21T12:46:57.234Z,25.00
2023-05-21T12:47:57.354Z,28.14
2023-05-21T12:48:57.357Z,25.63
2023-05-21T12:49:57.404Z,30.19
2023-05-21T12:50:57.529Z,34.52
2023-05-21T12:51:57.513Z,33.13
2023-05-21T12:52:57.604Z,24.76